Stillwater, New Jersey
Current Conditions -  °F | °C
As of 3:53 AM on Thursday 23 Oct 2014 (Local Time) from KFWN Reporting Station
Light Rain Light Rain  
Wind Chill: 51°   Ceiling: 2700
Heat Index: 51°   Visibility: 4mi
Dew Point: 47°   Wind: 0mph
Humidity: 86%   Direction: NA
Pressure: 29.77"   Gusts: NA
Location:  41.04°N, 74.88°W
Report Text: KFWN 230753Z AUTO 00000KT 4SM -RA BR BKN027 OVC034 11/08 A2977 RMK AO2 SLP080 P0005 T01060083
Loading
Personal Weather Stations






























Interactive Weather Map
Tropical Storm Tracking
New forecast layout! Learn more

10-Day Weather Forecast

Advertisements
Track Severe Weather on mobile